메인 페이지
METAR-TAF:

METAR-TAF

공항 :

Mammoth Yosemite Airport

Mammoth Lakes, 캘리포니아, 미국

위도: 37-37N, 경도: 118-50W, 고도: 2173m

현재 날씨관측

예보는 23분 전, 16:35시(UTC)에 발표되었습니다.
남남동4kt
온도 7°C
습도 36%
기압 1031 hPa
시정: 16.1km
맑음

METAR: KMMH 191635Z AUTO 15004KT 10SM CLR 07/M07 A3046 RMK AO2 T00711074

시각: 09:58 (16:58 UTC)

예보

예보는 5 시간 38분 전, 11:20시(UTC)에 발표되었습니다.
예보 대상 시간: 19일 12시부터 20일 12시까지 (UTC)
여러 방향의 바람 4kt
시정: 10km
맑음
19일 2100시부터 (UTC)
7kt
시정: 10km
맑음
20일 0200시부터 (UTC)
여러 방향의 바람 4kt
시정: 10km
맑음

TAF: KMMH 191120Z 1912/2012 VRB04KT P6SM SKC FM192100 10007KT P6SM SKC FM200200 VRB04KT P6SM SKC

4,000개 이상의 공항 관측 자료 및 예보 (METAR 및 TAF 보고).

지도상에서 검색 가능한 기상관측소가 노란 점과 빨간 점으로 표시되어 있습니다.

기상관측소 명을 보려면 표시 위로 마우스를 이동하세요.

날씨 관측과 예보를 보려면 클릭하세요.

지도 변경 : 확대하려면 엑스 표시가 있는 녹색 버튼, 축소하려면 빼기 표시가 있는 녹색 버튼, 다음 페이지의 지도를 보려면 녹색 화살표를 클릭하세요.


METAR-TAF: